createdAt,value
2022-12-19T00:02:51.417Z,22.20
2022-12-19T00:07:55.858Z,22.10
2022-12-19T00:13:00.811Z,21.90
2022-12-19T00:18:05.156Z,21.90
2022-12-19T00:23:08.875Z,21.80
2022-12-19T00:28:12.600Z,21.70
2022-12-19T00:33:16.325Z,21.60
2022-12-19T00:38:20.053Z,21.50
2022-12-19T00:43:23.900Z,21.40
2022-12-19T00:48:27.707Z,21.30
2022-12-19T00:53:31.431Z,21.30
2022-12-19T00:58:35.748Z,21.20
2022-12-19T01:03:41.751Z,21.20
2022-12-19T01:08:53.130Z,21.20
2022-12-19T01:13:58.511Z,21.50
2022-12-19T01:19:02.547Z,21.90
2022-12-19T01:24:08.830Z,22.20
2022-12-19T01:29:12.859Z,22.40
2022-12-19T01:34:16.694Z,22.50
2022-12-19T01:39:20.424Z,22.70
2022-12-19T01:44:26.799Z,22.80
2022-12-19T01:49:36.309Z,22.80
2022-12-19T01:54:41.631Z,22.80
2022-12-19T01:59:56.366Z,22.80
2022-12-19T02:05:03.880Z,22.80
2022-12-19T02:10:08.225Z,22.80
2022-12-19T02:15:16.210Z,22.80
2022-12-19T02:21:04.197Z,22.90
2022-12-19T02:26:17.144Z,22.90
2022-12-19T02:31:29.985Z,22.90
2022-12-19T08:09:07.792Z,22.00
2022-12-19T08:14:14.915Z,22.00
2022-12-19T08:19:27.592Z,21.80
2022-12-19T08:24:35.550Z,21.70
2022-12-19T08:29:41.420Z,21.70
2022-12-19T08:34:45.558Z,21.70
2022-12-19T08:39:49.533Z,21.60
2022-12-19T08:44:53.925Z,21.50
2022-12-19T08:49:58.285Z,21.40
2022-12-19T08:55:03.322Z,21.40
2022-12-19T09:00:07.179Z,21.30
2022-12-19T09:33:41.239Z,21.10
2022-12-19T09:39:02.318Z,21.10
2022-12-19T09:44:49.614Z,21.10
2022-12-19T09:55:33.912Z,21.90
2022-12-19T10:00:43.593Z,22.20
2022-12-19T10:07:16.198Z,22.30
2022-12-19T10:12:44.610Z,22.40
2022-12-19T10:17:27.100Z,22.40
2022-12-19T10:22:56.175Z,22.60
2022-12-19T10:28:29.250Z,22.70
2022-12-19T10:33:44.331Z,22.70
2022-12-19T10:38:54.727Z,22.80
2022-12-19T10:44:10.442Z,22.90
2022-12-19T10:49:19.452Z,22.90
2022-12-19T10:54:33.085Z,23.10
2022-12-19T10:59:37.365Z,23.10
2022-12-19T11:04:41.624Z,23.20
2022-12-19T11:09:52.427Z,23.10
2022-12-19T11:19:54.530Z,23.00
2022-12-19T11:29:19.131Z,22.90
2022-12-19T11:30:43.175Z,22.60
2022-12-19T11:37:21.774Z,22.30
2022-12-19T11:42:26.530Z,22.20
2022-12-19T11:47:46.213Z,22.10
2022-12-19T11:53:07.803Z,22.00
2022-12-19T11:58:14.551Z,21.80
2022-12-19T12:04:01.005Z,21.80
2022-12-19T12:12:47.482Z,21.70
2022-12-19T12:28:19.518Z,21.60
2022-12-19T12:31:02.136Z,21.60
2022-12-19T12:31:48.867Z,21.50
2022-12-19T12:35:31.529Z,21.50
2022-12-19T12:39:33.340Z,21.40
2022-12-19T12:44:46.132Z,21.30
2022-12-19T12:50:00.091Z,21.30
2022-12-19T12:55:06.352Z,21.20
2022-12-19T13:00:24.270Z,21.10
2022-12-19T13:05:46.448Z,21.10
2022-12-19T13:10:59.365Z,21.10
2022-12-19T13:16:41.442Z,20.90
2022-12-19T13:22:04.159Z,20.90
2022-12-19T13:27:20.044Z,20.90
2022-12-19T13:32:24.289Z,20.80
2022-12-19T13:40:02.344Z,20.80
2022-12-19T13:43:25.812Z,21.10
2022-12-19T13:48:45.027Z,21.30
2022-12-19T13:54:00.163Z,21.50
2022-12-19T13:59:08.889Z,21.60
2022-12-19T14:04:28.340Z,21.70
2022-12-19T14:11:30.160Z,21.80
2022-12-19T14:15:32.126Z,21.90
2022-12-19T14:22:11.570Z,21.90
2022-12-19T14:28:19.922Z,21.90
2022-12-19T14:31:35.867Z,21.90
2022-12-19T14:36:41.319Z,21.90
2022-12-19T14:42:06.515Z,21.90
2022-12-19T14:52:36.099Z,22.00
2022-12-19T14:54:25.923Z,22.20
2022-12-19T14:58:53.445Z,22.10
2022-12-19T15:04:33.670Z,22.20
2022-12-19T15:11:04.093Z,22.20
2022-12-19T15:14:56.395Z,22.20
2022-12-19T15:20:02.628Z,22.30
2022-12-19T15:25:35.845Z,22.30
2022-12-19T15:30:41.289Z,22.20
2022-12-19T15:35:45.396Z,22.20
2022-12-19T15:40:49.669Z,22.10
2022-12-19T15:45:59.850Z,22.20
2022-12-19T15:51:05.709Z,22.20
2022-12-19T15:56:28.591Z,22.30
2022-12-19T16:01:33.883Z,22.40
2022-12-19T16:06:38.477Z,22.40
2022-12-19T16:11:42.217Z,22.40
2022-12-19T16:16:52.481Z,22.40
2022-12-19T16:27:31.584Z,22.50
2022-12-19T16:32:35.385Z,22.40
2022-12-19T16:37:39.012Z,22.30
2022-12-19T16:42:44.671Z,22.30
2022-12-19T16:47:49.550Z,22.20
2022-12-19T16:52:55.204Z,22.10
2022-12-19T16:58:04.301Z,22.00
2022-12-19T17:03:36.835Z,22.10
2022-12-19T17:08:41.892Z,22.30
2022-12-19T17:13:51.643Z,22.20
2022-12-19T17:18:55.481Z,21.90
2022-12-19T17:24:01.965Z,21.90
2022-12-19T17:29:06.405Z,21.90
2022-12-19T17:34:24.859Z,21.80
2022-12-19T17:39:32.419Z,21.80
2022-12-19T17:44:39.302Z,21.70
2022-12-19T17:49:44.426Z,21.70
2022-12-19T17:54:50.916Z,21.70
2022-12-19T17:59:54.745Z,21.70
2022-12-19T18:04:58.979Z,21.60
2022-12-19T18:10:02.605Z,21.50
2022-12-19T18:15:07.125Z,21.40
2022-12-19T18:20:37.404Z,21.30
2022-12-19T18:25:47.813Z,21.30
2022-12-19T18:31:35.135Z,21.20
2022-12-19T18:36:55.234Z,21.10
2022-12-19T18:42:03.067Z,21.10
2022-12-19T18:47:24.649Z,21.10
2022-12-19T18:52:47.546Z,21.20
2022-12-19T18:58:27.034Z,21.10
2022-12-19T19:03:45.816Z,21.10
2022-12-19T19:08:53.533Z,21.20
2022-12-19T19:14:32.239Z,21.30
2022-12-19T19:19:38.611Z,21.40
2022-12-19T19:24:45.316Z,21.50
2022-12-19T19:29:55.490Z,21.60
2022-12-19T19:35:03.220Z,21.60
2022-12-19T19:40:16.832Z,21.70
2022-12-19T19:45:27.618Z,21.90
2022-12-19T19:50:37.165Z,22.00
2022-12-19T19:55:42.067Z,22.10
2022-12-19T20:00:50.842Z,22.10
2022-12-19T20:06:05.922Z,22.30
2022-12-19T20:11:12.275Z,22.40
2022-12-19T20:16:23.434Z,22.40
2022-12-19T20:21:29.538Z,22.40
2022-12-19T20:26:33.795Z,22.50
2022-12-19T20:31:39.863Z,22.40
2022-12-19T20:36:49.835Z,22.40
2022-12-19T20:41:54.290Z,22.50
2022-12-19T20:46:59.535Z,22.50
2022-12-19T20:52:03.878Z,22.50
2022-12-19T20:57:11.893Z,22.50
2022-12-19T21:02:25.646Z,22.50
2022-12-19T21:07:31.905Z,22.50
2022-12-19T21:12:47.370Z,22.50
2022-12-19T21:17:55.811Z,22.40
2022-12-19T21:23:09.665Z,22.40
2022-12-19T21:28:32.597Z,22.40
2022-12-19T21:33:37.848Z,22.40
2022-12-19T21:38:44.332Z,22.50
2022-12-19T21:43:51.988Z,22.50
2022-12-19T21:48:59.748Z,22.60
2022-12-19T21:54:05.301Z,22.60
2022-12-19T21:59:15.479Z,22.50
2022-12-19T22:04:24.245Z,22.50
2022-12-19T22:09:34.250Z,22.50
2022-12-19T22:14:46.063Z,22.50
2022-12-19T22:19:51.476Z,22.40
2022-12-19T22:24:59.295Z,22.30
2022-12-19T22:30:08.808Z,22.30
2022-12-19T22:35:14.932Z,22.20
2022-12-19T22:40:20.706Z,22.20
2022-12-19T22:45:24.330Z,22.20
2022-12-19T22:50:30.817Z,22.00
2022-12-19T22:55:34.675Z,21.90
2022-12-19T23:00:38.478Z,22.00
2022-12-19T23:05:46.928Z,21.90
2022-12-19T23:10:54.213Z,21.80
2022-12-19T23:15:58.455Z,21.80
2022-12-19T23:21:09.348Z,21.70
2022-12-19T23:26:16.077Z,21.70
2022-12-19T23:31:22.053Z,21.70
2022-12-19T23:37:08.824Z,21.50
2022-12-19T23:41:56.682Z,21.50
2022-12-19T23:47:03.385Z,21.50
2022-12-19T23:52:07.713Z,21.40
2022-12-19T23:57:11.442Z,21.40
